Time;durP1;ratioP1;P1;durP2;ratioP2;P2;SDS_P1;SDS_P2;PMS_P1;PMS_P2;Temp;Humidity;BMP_temperature;BMP_pressure;BME280_temperature;BME280_humidity;BME280_pressure;Samples;Min_cycle;Max_cycle;Signal;HPM_P1;HPM_P2
2022/05/23 00:00:17;;;;;;;6.07;2.22;;;;;;;;;;4987396;28;20042;-58
2022/05/23 00:02:44;;;;;;;4.72;2.30;;;;;;;;;;4987867;28;20117;-57
2022/05/23 00:05:10;;;;;;;6.10;2.10;;;;;;;;;;4987453;28;20590;-57
2022/05/23 00:07:38;;;;;;;7.55;2.45;;;;;;;;;;4985311;28;20046;-56
2022/05/23 00:10:05;;;;;;;5.20;2.57;;;;;;;;;;4987120;28;20503;-56
2022/05/23 00:12:32;;;;;;;7.17;2.10;;;;;;;;;;4986853;28;20290;-57
2022/05/23 00:14:58;;;;;;;4.55;2.33;;;;;;;;;;4987188;28;20081;-57
2022/05/23 00:17:24;;;;;;;4.53;2.17;;;;;;;;;;4986767;28;20271;-57
2022/05/23 00:19:50;;;;;;;5.70;2.30;;;;;;;;;;4987034;28;20571;-57
2022/05/23 00:22:17;;;;;;;4.32;2.10;;;;;;;;;;4986114;28;20097;-57
2022/05/23 00:24:44;;;;;;;3.78;1.95;;;;;;;;;;4986792;28;20539;-57
2022/05/23 00:27:12;;;;;;;3.50;1.92;;;;;;;;;;4987375;28;20120;-57
2022/05/23 00:29:38;;;;;;;6.47;2.40;;;;;;;;;;4986441;28;20404;-57
2022/05/23 00:37:34;;;;;;;6.22;2.28;;;;;;;;;;4985484;28;20141;-56
2022/05/23 00:40:00;;;;;;;11.15;2.33;;;;;;;;;;4986909;28;20121;-56
2022/05/23 00:45:20;;;;;;;9.27;2.58;;;;;;;;;;4986198;28;20080;-57
2022/05/23 00:47:48;;;;;;;3.17;2.08;;;;;;;;;;4985110;28;20046;-58
2022/05/23 00:50:16;;;;;;;8.73;2.25;;;;;;;;;;4987372;28;20053;-57
2022/05/23 00:52:45;;;;;;;11.27;1.98;;;;;;;;;;4986314;28;20051;-56
2022/05/23 00:55:16;;;;;;;4.28;2.22;;;;;;;;;;4986790;28;20607;-56
2022/05/23 00:57:44;;;;;;;5.28;1.83;;;;;;;;;;4986507;28;20050;-57
2022/05/23 01:00:11;;;;;;;6.25;2.10;;;;;;;;;;4986874;28;20046;-57
2022/05/23 01:02:37;;;;;;;5.45;2.25;;;;;;;;;;4986383;28;20395;-56
2022/05/23 01:05:05;;;;;;;4.65;2.20;;;;;;;;;;4986598;28;20126;-57
2022/05/23 01:07:32;;;;;;;5.95;2.33;;;;;;;;;;4984998;28;20381;-57
2022/05/23 01:09:58;;;;;;;4.88;2.30;;;;;;;;;;4986595;28;20042;-57
2022/05/23 01:12:25;;;;;;;2.22;1.83;;;;;;;;;;4986020;28;20506;-57
2022/05/23 01:14:59;;;;;;;7.10;2.13;;;;;;;;;;4986818;28;20046;-57
2022/05/23 01:17:26;;;;;;;7.35;2.35;;;;;;;;;;4986453;28;20140;-56
2022/05/23 01:19:52;;;;;;;6.05;2.25;;;;;;;;;;4988623;28;20182;-57
2022/05/23 01:22:21;;;;;;;5.90;2.20;;;;;;;;;;4989330;28;20050;-57
2022/05/23 01:24:48;;;;;;;5.18;1.88;;;;;;;;;;4989516;28;20112;-57
2022/05/23 01:27:14;;;;;;;4.75;1.73;;;;;;;;;;4990848;28;20050;-56
2022/05/23 01:29:46;;;;;;;7.85;2.17;;;;;;;;;;4989975;28;20333;-57
2022/05/23 01:32:13;;;;;;;7.25;2.03;;;;;;;;;;4990726;28;20046;-56
2022/05/23 01:34:42;;;;;;;5.70;1.95;;;;;;;;;;4989641;28;20496;-57
2022/05/23 01:37:08;;;;;;;3.35;1.70;;;;;;;;;;4989372;28;20065;-57
2022/05/23 01:39:34;;;;;;;3.75;2.05;;;;;;;;;;4989834;28;20054;-57
2022/05/23 01:42:00;;;;;;;4.00;1.50;;;;;;;;;;4989944;28;20484;-57
2022/05/23 01:44:28;;;;;;;6.07;1.90;;;;;;;;;;4988735;28;20057;-57
2022/05/23 01:46:54;;;;;;;4.18;2.00;;;;;;;;;;4990066;28;20455;-57
2022/05/23 01:49:20;;;;;;;3.60;1.80;;;;;;;;;;4988944;28;20049;-57
2022/05/23 01:51:46;;;;;;;5.50;2.10;;;;;;;;;;4987942;28;20129;-57
2022/05/23 01:54:12;;;;;;;4.60;1.70;;;;;;;;;;4990037;28;20168;-57
2022/05/23 01:56:39;;;;;;;2.67;1.70;;;;;;;;;;4989720;28;20042;-57
2022/05/23 02:01:50;;;;;;;3.38;1.60;;;;;;;;;;4989448;28;20117;-57
2022/05/23 02:04:16;;;;;;;4.68;1.90;;;;;;;;;;4990084;28;20057;-57
2022/05/23 02:06:42;;;;;;;6.72;1.90;;;;;;;;;;4989334;28;20057;-56
2022/05/23 02:09:08;;;;;;;6.45;1.60;;;;;;;;;;4987834;28;20077;-57
2022/05/23 02:11:35;;;;;;;6.53;1.90;;;;;;;;;;4969846;28;20070;-57
2022/05/23 02:14:01;;;;;;;4.15;1.40;;;;;;;;;;4969202;28;20134;-56
2022/05/23 02:16:27;;;;;;;5.53;1.50;;;;;;;;;;4969675;28;20042;-57
2022/05/23 02:18:54;;;;;;;4.35;1.48;;;;;;;;;;4970140;28;20077;-56
2022/05/23 02:21:20;;;;;;;4.93;1.80;;;;;;;;;;4968838;28;20043;-57
2022/05/23 02:23:47;;;;;;;3.10;1.45;;;;;;;;;;4969941;28;20058;-58
2022/05/23 02:26:13;;;;;;;5.45;1.95;;;;;;;;;;4969479;28;20051;-57
2022/05/23 02:28:39;;;;;;;3.88;1.83;;;;;;;;;;4969528;28;20046;-57
2022/05/23 02:31:05;;;;;;;4.88;1.73;;;;;;;;;;4968672;28;20089;-57
2022/05/23 02:33:31;;;;;;;3.67;1.73;;;;;;;;;;4967849;28;20532;-57
2022/05/23 02:35:58;;;;;;;5.32;1.80;;;;;;;;;;4988485;28;20061;-57
2022/05/23 02:38:24;;;;;;;5.20;1.90;;;;;;;;;;4987696;28;20496;-56
2022/05/23 02:40:50;;;;;;;3.92;1.98;;;;;;;;;;4988535;28;20046;-57
2022/05/23 02:43:16;;;;;;;7.18;2.00;;;;;;;;;;4989353;28;20092;-57
2022/05/23 02:45:43;;;;;;;3.58;2.15;;;;;;;;;;4989048;28;20066;-56
2022/05/23 02:48:09;;;;;;;6.15;1.90;;;;;;;;;;4988617;28;20046;-57
2022/05/23 02:50:35;;;;;;;5.15;1.90;;;;;;;;;;4988428;28;20039;-57
2022/05/23 02:53:02;;;;;;;8.30;2.03;;;;;;;;;;4987658;28;20519;-57
2022/05/23 02:55:28;;;;;;;4.95;1.83;;;;;;;;;;4987878;28;20047;-56
2022/05/23 02:57:54;;;;;;;6.07;2.00;;;;;;;;;;4971218;28;20054;-56
2022/05/23 03:00:20;;;;;;;6.43;2.35;;;;;;;;;;4968813;28;20054;-57
2022/05/23 03:03:04;;;;;;;7.70;2.17;;;;;;;;;;4969257;28;20051;-56
2022/05/23 03:05:32;;;;;;;4.72;1.80;;;;;;;;;;4968260;28;20050;-57
2022/05/23 03:07:59;;;;;;;5.78;2.45;;;;;;;;;;4968219;28;20086;-57
2022/05/23 03:10:25;;;;;;;6.20;2.00;;;;;;;;;;4968548;28;20057;-56
2022/05/23 03:12:52;;;;;;;5.10;1.83;;;;;;;;;;4968745;28;20047;-57
2022/05/23 03:15:18;;;;;;;9.15;2.08;;;;;;;;;;4968458;28;20483;-57
2022/05/23 03:17:44;;;;;;;7.60;1.90;;;;;;;;;;4969269;28;20183;-56
2022/05/23 03:20:11;;;;;;;5.95;2.40;;;;;;;;;;4968302;28;20046;-57
2022/05/23 03:28:07;;;;;;;7.18;2.30;;;;;;;;;;4968811;28;20411;-56
2022/05/23 03:30:33;;;;;;;4.95;2.35;;;;;;;;;;4968355;28;20110;-57
2022/05/23 03:32:59;;;;;;;6.60;2.50;;;;;;;;;;4968508;28;20047;-57
2022/05/23 03:35:29;;;;;;;7.85;2.83;;;;;;;;;;4968298;28;20134;-56
2022/05/23 03:37:55;;;;;;;7.32;2.65;;;;;;;;;;4974461;28;20047;-57
2022/05/23 03:40:22;;;;;;;4.28;2.38;;;;;;;;;;4967677;28;20111;-57
2022/05/23 03:42:48;;;;;;;5.97;2.40;;;;;;;;;;4968416;28;20043;-57
2022/05/23 03:45:15;;;;;;;5.18;2.40;;;;;;;;;;4968423;28;20043;-56
2022/05/23 03:47:41;;;;;;;6.20;2.60;;;;;;;;;;4967816;28;20047;-56
2022/05/23 03:50:08;;;;;;;9.50;3.00;;;;;;;;;;4968026;28;20050;-57
2022/05/23 03:52:34;;;;;;;5.22;2.70;;;;;;;;;;4966812;28;20046;-57
2022/05/23 03:55:00;;;;;;;9.25;2.90;;;;;;;;;;4967951;28;20043;-57
2022/05/23 03:57:26;;;;;;;5.38;2.72;;;;;;;;;;4967844;28;20512;-57
2022/05/23 03:59:54;;;;;;;7.00;3.20;;;;;;;;;;4968092;28;20089;-57
2022/05/23 04:02:20;;;;;;;6.10;2.53;;;;;;;;;;4967770;28;20053;-56
2022/05/23 04:04:47;;;;;;;5.15;2.78;;;;;;;;;;4968196;28;20050;-57
2022/05/23 04:07:14;;;;;;;7.40;2.72;;;;;;;;;;4966742;28;20046;-56
2022/05/23 04:09:40;;;;;;;4.18;2.40;;;;;;;;;;4966268;28;20822;-57
2022/05/23 04:12:06;;;;;;;6.20;2.58;;;;;;;;;;4967759;28;20042;-56
2022/05/23 04:14:33;;;;;;;8.43;2.65;;;;;;;;;;4967448;28;20097;-57
2022/05/23 04:16:59;;;;;;;5.20;2.30;;;;;;;;;;4967647;28;20112;-56
2022/05/23 04:19:25;;;;;;;5.18;2.70;;;;;;;;;;4967748;28;20109;-57
2022/05/23 04:21:52;;;;;;;8.73;3.00;;;;;;;;;;4966487;28;20047;-57
2022/05/23 04:24:19;;;;;;;4.78;3.03;;;;;;;;;;4967626;28;20050;-57
2022/05/23 04:26:45;;;;;;;7.78;2.72;;;;;;;;;;4973176;28;20738;-56
2022/05/23 04:29:12;;;;;;;5.82;2.75;;;;;;;;;;4968560;28;20145;-57
2022/05/23 04:31:38;;;;;;;7.65;3.10;;;;;;;;;;4965897;28;20058;-56
2022/05/23 04:36:50;;;;;;;5.55;2.80;;;;;;;;;;4966857;28;20129;-57
2022/05/23 04:39:16;;;;;;;3.90;2.60;;;;;;;;;;4968313;28;20101;-57
2022/05/23 04:41:42;;;;;;;7.88;3.25;;;;;;;;;;4986664;28;20046;-57
2022/05/23 04:44:08;;;;;;;6.72;2.80;;;;;;;;;;4986250;28;20437;-57
2022/05/23 04:46:35;;;;;;;6.05;3.03;;;;;;;;;;4985704;28;20042;-56
2022/05/23 04:51:46;;;;;;;4.05;2.92;;;;;;;;;;4985882;28;20046;-57
2022/05/23 04:54:12;;;;;;;3.83;2.67;;;;;;;;;;4987677;28;20092;-57
2022/05/23 04:56:38;;;;;;;5.68;3.40;;;;;;;;;;4986785;28;20515;-57
2022/05/23 04:59:05;;;;;;;6.18;3.10;;;;;;;;;;4982154;28;20053;-58
2022/05/23 05:01:31;;;;;;;9.20;3.78;;;;;;;;;;4984801;28;20039;-59
2022/05/23 05:03:58;;;;;;;7.25;3.67;;;;;;;;;;4980329;28;20046;-59
2022/05/23 05:06:25;;;;;;;10.50;3.92;;;;;;;;;;4989993;28;20079;-58
2022/05/23 05:08:51;;;;;;;6.88;3.45;;;;;;;;;;4985116;28;20562;-58
2022/05/23 05:11:18;;;;;;;8.73;3.38;;;;;;;;;;4979398;28;20081;-59
2022/05/23 05:13:45;;;;;;;9.27;3.90;;;;;;;;;;4978447;28;20097;-58
2022/05/23 05:16:12;;;;;;;12.27;3.95;;;;;;;;;;4980773;28;20087;-58
2022/05/23 05:18:38;;;;;;;10.25;3.35;;;;;;;;;;4987624;28;20560;-58
2022/05/23 05:21:05;;;;;;;11.38;4.22;;;;;;;;;;4983109;28;20049;-58
2022/05/23 05:23:31;;;;;;;8.57;3.72;;;;;;;;;;4988578;28;20054;-58
2022/05/23 05:25:57;;;;;;;14.98;7.40;;;;;;;;;;4983301;28;20050;-58
2022/05/23 05:28:24;;;;;;;12.15;4.90;;;;;;;;;;4975825;28;20046;-58
2022/05/23 05:30:52;;;;;;;12.80;6.57;;;;;;;;;;4975563;28;20043;-58
2022/05/23 05:33:21;;;;;;;7.97;4.30;;;;;;;;;;4974915;28;20046;-58
2022/05/23 05:35:50;;;;;;;13.10;7.03;;;;;;;;;;4979805;28;20161;-59
2022/05/23 05:38:21;;;;;;;9.50;4.28;;;;;;;;;;4987262;28;20054;-63
2022/05/23 05:40:51;;;;;;;16.27;5.05;;;;;;;;;;4986596;28;20035;-59
2022/05/23 05:43:21;;;;;;;9.30;4.50;;;;;;;;;;4982340;28;20173;-62
2022/05/23 05:45:49;;;;;;;8.95;4.22;;;;;;;;;;4983071;28;20035;-60
2022/05/23 05:48:16;;;;;;;11.30;4.47;;;;;;;;;;4983322;28;20104;-58
2022/05/23 05:50:42;;;;;;;8.88;3.92;;;;;;;;;;4976862;28;20050;-59
2022/05/23 05:53:10;;;;;;;6.47;3.70;;;;;;;;;;4974109;28;20043;-58
2022/05/23 05:55:38;;;;;;;7.53;4.40;;;;;;;;;;4974496;28;20054;-58
2022/05/23 05:58:04;;;;;;;29.33;5.50;;;;;;;;;;4986613;28;20046;-58
2022/05/23 06:00:30;;;;;;;17.10;5.90;;;;;;;;;;4971235;28;20158;-58
2022/05/23 06:02:56;;;;;;;14.57;4.65;;;;;;;;;;4979827;28;20082;-58
2022/05/23 06:05:23;;;;;;;8.95;4.50;;;;;;;;;;4977452;28;20042;-58
2022/05/23 06:13:19;;;;;;;13.85;7.15;;;;;;;;;;4972810;28;20081;-58
2022/05/23 06:15:45;;;;;;;11.32;4.80;;;;;;;;;;4974704;28;20053;-58
2022/05/23 06:18:12;;;;;;;9.88;4.47;;;;;;;;;;4973783;28;20081;-58
2022/05/23 06:20:39;;;;;;;9.80;4.65;;;;;;;;;;4977291;28;20051;-59
2022/05/23 06:23:05;;;;;;;10.10;4.82;;;;;;;;;;4977189;28;20046;-58
2022/05/23 06:25:32;;;;;;;18.48;5.38;;;;;;;;;;4976446;28;20045;-58
2022/05/23 06:27:58;;;;;;;11.25;4.53;;;;;;;;;;4975334;28;20074;-58
2022/05/23 06:30:25;;;;;;;8.43;4.70;;;;;;;;;;4975131;28;20097;-58
2022/05/23 06:32:51;;;;;;;13.02;4.63;;;;;;;;;;4974507;28;20042;-56
2022/05/23 06:35:18;;;;;;;14.23;6.70;;;;;;;;;;4975927;28;20058;-57
2022/05/23 06:37:44;;;;;;;25.08;13.85;;;;;;;;;;4972508;28;20035;-56
2022/05/23 06:40:11;;;;;;;17.50;10.88;;;;;;;;;;4977720;28;20058;-56
2022/05/23 06:42:38;;;;;;;11.13;4.78;;;;;;;;;;4976266;28;20082;-56
2022/05/23 06:45:06;;;;;;;8.65;4.18;;;;;;;;;;4977508;28;20042;-56
2022/05/23 06:47:32;;;;;;;11.93;4.40;;;;;;;;;;4979791;28;20056;-56
2022/05/23 06:49:58;;;;;;;10.10;5.45;;;;;;;;;;4984161;28;20460;-57
2022/05/23 06:52:24;;;;;;;17.45;5.95;;;;;;;;;;4979327;28;20053;-57
2022/05/23 06:54:51;;;;;;;10.75;5.40;;;;;;;;;;4976880;28;20060;-58
2022/05/23 06:57:17;;;;;;;11.65;4.30;;;;;;;;;;4974232;28;20039;-58
2022/05/23 06:59:43;;;;;;;10.57;5.20;;;;;;;;;;4979203;28;20555;-57
2022/05/23 07:02:10;;;;;;;11.23;7.15;;;;;;;;;;4977033;28;20039;-57
2022/05/23 07:12:52;;;;;;;8.57;4.72;;;;;;;;;;4974713;28;20431;-57
2022/05/23 07:15:19;;;;;;;9.40;4.70;;;;;;;;;;4973226;28;20054;-58
2022/05/23 07:17:45;;;;;;;6.38;4.35;;;;;;;;;;4973361;28;20120;-58
2022/05/23 07:20:11;;;;;;;9.48;4.35;;;;;;;;;;4973960;28;20172;-58
2022/05/23 07:22:38;;;;;;;7.85;4.40;;;;;;;;;;4975486;28;20087;-58
2022/05/23 07:25:06;;;;;;;8.50;4.15;;;;;;;;;;4978291;28;20051;-58
2022/05/23 07:27:32;;;;;;;10.52;4.68;;;;;;;;;;4976120;28;20149;-58
2022/05/23 07:29:58;;;;;;;7.50;4.43;;;;;;;;;;4975328;28;20109;-57
2022/05/23 07:32:25;;;;;;;10.18;4.65;;;;;;;;;;4974526;28;20085;-61
2022/05/23 07:34:51;;;;;;;7.50;4.70;;;;;;;;;;4979342;28;20046;-58
2022/05/23 07:37:17;;;;;;;6.90;4.47;;;;;;;;;;4977976;28;20477;-58
2022/05/23 07:39:44;;;;;;;10.23;7.25;;;;;;;;;;4980964;28;20046;-58
2022/05/23 07:42:10;;;;;;;9.77;5.55;;;;;;;;;;4980993;28;20054;-57
2022/05/23 07:44:38;;;;;;;12.88;6.88;;;;;;;;;;4979055;28;20050;-58
2022/05/23 07:47:06;;;;;;;16.67;12.57;;;;;;;;;;4978050;28;20456;-58
2022/05/23 07:49:33;;;;;;;12.32;5.50;;;;;;;;;;4977924;28;20129;-57
2022/05/23 07:52:01;;;;;;;7.20;4.32;;;;;;;;;;4978937;28;20554;-57
2022/05/23 08:02:44;;;;;;;17.05;11.75;;;;;;;;;;4977966;28;20039;-58
2022/05/23 08:05:11;;;;;;;20.55;7.55;;;;;;;;;;4978100;28;20137;-60
2022/05/23 08:07:38;;;;;;;11.02;7.78;;;;;;;;;;4976414;28;20050;-57
2022/05/23 08:10:04;;;;;;;11.75;6.57;;;;;;;;;;4977539;28;20049;-58
2022/05/23 08:12:31;;;;;;;13.63;8.52;;;;;;;;;;4975687;28;20053;-59
2022/05/23 08:14:57;;;;;;;16.75;11.80;;;;;;;;;;4975672;28;20185;-57
2022/05/23 08:17:23;;;;;;;17.63;7.70;;;;;;;;;;4973409;28;20057;-58
2022/05/23 08:19:50;;;;;;;19.95;17.42;;;;;;;;;;4974756;28;20845;-57
2022/05/23 08:22:16;;;;;;;25.08;13.57;;;;;;;;;;4976544;28;20042;-59
2022/05/23 08:24:43;;;;;;;10.07;4.30;;;;;;;;;;4978343;28;20113;-58
2022/05/23 08:27:09;;;;;;;7.68;4.43;;;;;;;;;;4975814;28;20488;-59
2022/05/23 08:29:36;;;;;;;8.75;5.00;;;;;;;;;;4973444;28;20049;-58
2022/05/23 08:32:03;;;;;;;7.75;5.03;;;;;;;;;;4977490;28;20038;-59
2022/05/23 08:34:29;;;;;;;14.23;6.13;;;;;;;;;;4977437;28;20485;-58
2022/05/23 08:36:55;;;;;;;7.13;4.50;;;;;;;;;;4978324;28;20049;-59
2022/05/23 08:39:21;;;;;;;10.95;5.13;;;;;;;;;;4973951;28;20046;-59
2022/05/23 08:41:49;;;;;;;8.48;5.75;;;;;;;;;;4978963;28;20039;-59
2022/05/23 08:44:23;;;;;;;10.00;6.25;;;;;;;;;;4967401;28;20046;-58
2022/05/23 08:46:56;;;;;;;10.93;4.38;;;;;;;;;;4977300;28;20042;-58
2022/05/23 08:49:32;;;;;;;8.30;4.63;;;;;;;;;;4974918;28;20081;-58
2022/05/23 08:52:05;;;;;;;8.23;4.50;;;;;;;;;;4974251;28;20226;-59
2022/05/23 08:54:38;;;;;;;12.07;4.40;;;;;;;;;;4968027;28;20038;-58
2022/05/23 08:57:06;;;;;;;7.47;4.38;;;;;;;;;;4984142;28;20046;-58
2022/05/23 08:59:40;;;;;;;10.95;5.18;;;;;;;;;;4983758;28;20597;-58
2022/05/23 09:02:14;;;;;;;7.28;4.88;;;;;;;;;;4972124;28;20035;-58
2022/05/23 09:04:42;;;;;;;9.63;4.95;;;;;;;;;;4967096;28;20126;-58
2022/05/23 09:07:11;;;;;;;16.08;11.65;;;;;;;;;;4978586;28;20399;-58
2022/05/23 09:09:38;;;;;;;7.70;3.55;;;;;;;;;;4982343;28;20047;-58
2022/05/23 09:12:09;;;;;;;7.45;3.78;;;;;;;;;;4974109;28;20089;-58
2022/05/23 09:14:36;;;;;;;10.32;4.00;;;;;;;;;;4984170;28;20120;-58
2022/05/23 09:17:03;;;;;;;7.68;3.45;;;;;;;;;;4983564;28;20045;-58
2022/05/23 09:19:34;;;;;;;5.10;3.15;;;;;;;;;;4983098;28;20047;-58
2022/05/23 09:22:13;;;;;;;7.70;3.03;;;;;;;;;;4969797;28;20038;-58
2022/05/23 09:24:43;;;;;;;4.65;2.65;;;;;;;;;;4982909;28;20066;-58
2022/05/23 09:27:18;;;;;;;9.35;3.08;;;;;;;;;;4981399;28;20046;-58
2022/05/23 09:29:46;;;;;;;6.07;3.15;;;;;;;;;;4970082;28;20165;-58
2022/05/23 09:32:17;;;;;;;7.72;4.75;;;;;;;;;;4973780;28;20039;-58
2022/05/23 09:34:46;;;;;;;11.98;3.80;;;;;;;;;;4977933;28;20051;-58
2022/05/23 09:37:18;;;;;;;6.93;4.47;;;;;;;;;;4976003;28;20140;-58
2022/05/23 09:39:52;;;;;;;8.40;2.90;;;;;;;;;;4978924;28;20049;-59
2022/05/23 09:48:07;;;;;;;5.57;2.58;;;;;;;;;;4971721;28;20527;-58
2022/05/23 09:50:36;;;;;;;4.82;2.70;;;;;;;;;;4982127;28;20476;-58
2022/05/23 09:53:02;;;;;;;8.75;2.83;;;;;;;;;;4973198;28;20051;-58
2022/05/23 09:55:31;;;;;;;8.02;2.45;;;;;;;;;;4986919;28;20054;-58
2022/05/23 09:57:59;;;;;;;8.30;2.72;;;;;;;;;;4985600;28;20050;-58
2022/05/23 10:00:25;;;;;;;8.98;3.90;;;;;;;;;;4973809;28;20050;-58
2022/05/23 10:02:52;;;;;;;6.65;2.78;;;;;;;;;;4983626;28;20049;-58
2022/05/23 10:05:33;;;;;;;7.47;2.90;;;;;;;;;;4970315;28;20043;-59
2022/05/23 10:08:01;;;;;;;6.82;2.67;;;;;;;;;;4984685;28;20503;-58
2022/05/23 10:10:29;;;;;;;7.35;2.95;;;;;;;;;;4970942;28;20665;-58
2022/05/23 10:13:16;;;;;;;5.30;2.40;;;;;;;;;;4984685;28;20043;-59
2022/05/23 10:15:45;;;;;;;5.67;2.73;;;;;;;;;;4986720;28;20048;-59
2022/05/23 10:18:18;;;;;;;5.68;2.35;;;;;;;;;;4984021;28;20085;-58
2022/05/23 10:20:45;;;;;;;6.63;2.17;;;;;;;;;;4968813;28;20066;-59
2022/05/23 10:23:21;;;;;;;5.97;2.33;;;;;;;;;;4986485;28;20046;-59
2022/05/23 10:26:06;;;;;;;6.45;2.42;;;;;;;;;;4970980;28;20077;-60
2022/05/23 10:28:36;;;;;;;5.68;2.35;;;;;;;;;;4984271;28;20081;-59
2022/05/23 10:31:06;;;;;;;6.88;2.38;;;;;;;;;;4986250;28;20073;-58
2022/05/23 10:33:33;;;;;;;6.97;2.45;;;;;;;;;;4986284;28;20073;-59
2022/05/23 10:36:03;;;;;;;6.82;2.67;;;;;;;;;;4973769;28;20213;-58
2022/05/23 10:44:28;;;;;;;8.40;3.10;;;;;;;;;;4969305;28;20047;-58
2022/05/23 10:47:03;;;;;;;4.50;2.20;;;;;;;;;;4982094;28;20078;-59
2022/05/23 10:49:35;;;;;;;4.35;1.77;;;;;;;;;;4983410;28;20041;-59
2022/05/23 10:52:10;;;;;;;7.28;2.42;;;;;;;;;;4980221;28;20039;-59
2022/05/23 10:54:38;;;;;;;3.70;2.10;;;;;;;;;;4971696;28;20977;-59
2022/05/23 10:57:16;;;;;;;5.80;2.20;;;;;;;;;;4973243;28;20104;-59
2022/05/23 10:59:51;;;;;;;5.05;2.53;;;;;;;;;;4976530;28;20051;-58
2022/05/23 11:02:22;;;;;;;4.10;1.58;;;;;;;;;;4975485;28;20047;-63
2022/05/23 11:05:06;;;;;;;5.30;1.95;;;;;;;;;;4976407;28;20050;-59
2022/05/23 11:07:37;;;;;;;2.78;1.63;;;;;;;;;;4977416;28;20073;-58
2022/05/23 11:10:17;;;;;;;6.03;1.90;;;;;;;;;;4974566;28;20078;-59
2022/05/23 11:12:48;;;;;;;9.35;2.42;;;;;;;;;;4975050;28;20038;-58
2022/05/23 11:15:23;;;;;;;7.35;2.00;;;;;;;;;;4974167;28;20530;-59
2022/05/23 11:17:55;;;;;;;2.88;1.30;;;;;;;;;;4975396;28;20073;-59
2022/05/23 11:20:21;;;;;;;4.03;1.40;;;;;;;;;;4973695;28;20055;-59
2022/05/23 11:22:53;;;;;;;3.63;1.67;;;;;;;;;;4973950;28;20038;-59
2022/05/23 11:25:20;;;;;;;7.78;1.40;;;;;;;;;;4976312;28;20050;-59
2022/05/23 11:33:46;;;;;;;4.38;1.60;;;;;;;;;;4971717;28;20112;-58
2022/05/23 11:36:15;;;;;;;6.43;2.17;;;;;;;;;;4972331;28;20520;-58
2022/05/23 11:38:45;;;;;;;6.13;1.92;;;;;;;;;;4974666;28;20050;-59
2022/05/23 11:41:27;;;;;;;16.58;2.40;;;;;;;;;;4971095;28;20038;-59
2022/05/23 11:43:54;;;;;;;4.03;1.92;;;;;;;;;;4972615;28;20065;-59
2022/05/23 11:46:26;;;;;;;6.30;1.80;;;;;;;;;;4972417;28;20408;-59
2022/05/23 11:48:54;;;;;;;3.38;1.35;;;;;;;;;;4972401;28;20051;-59
2022/05/23 11:51:24;;;;;;;3.55;1.55;;;;;;;;;;4972229;28;20122;-59
2022/05/23 11:53:55;;;;;;;3.85;1.85;;;;;;;;;;4971923;28;20582;-59
2022/05/23 11:56:34;;;;;;;16.08;12.52;;;;;;;;;;4972543;28;20042;-59
2022/05/23 11:59:00;;;;;;;4.68;2.13;;;;;;;;;;4970812;28;20058;-59
2022/05/23 12:01:29;;;;;;;2.88;1.90;;;;;;;;;;4969210;28;20500;-58
2022/05/23 12:03:56;;;;;;;8.18;1.95;;;;;;;;;;4970962;28;20532;-60
2022/05/23 12:06:26;;;;;;;5.63;1.77;;;;;;;;;;4973247;28;20086;-59
2022/05/23 12:08:58;;;;;;;4.78;2.08;;;;;;;;;;4972367;28;20049;-59
2022/05/23 12:11:26;;;;;;;5.90;2.10;;;;;;;;;;4971075;28;20126;-59
2022/05/23 12:13:52;;;;;;;;;;;;;;;;;;4972076;28;20042;-59
2022/05/23 12:16:22;;;;;;;4.88;2.30;;;;;;;;;;4971346;28;20400;-59
2022/05/23 12:18:49;;;;;;;5.25;1.90;;;;;;;;;;4971455;28;20075;-59
2022/05/23 12:21:34;;;;;;;6.75;2.03;;;;;;;;;;4971152;28;20042;-59
2022/05/23 12:24:13;;;;;;;6.63;2.13;;;;;;;;;;4975019;28;20050;-59
2022/05/23 12:26:40;;;;;;;5.55;2.30;;;;;;;;;;4974634;28;20059;-59
2022/05/23 12:29:08;;;;;;;;;;;;;;;;;;4973423;28;20502;-59
2022/05/23 12:31:38;;;;;;;4.40;2.03;;;;;;;;;;4971314;28;19929;-59
2022/05/23 12:34:08;;;;;;;7.72;2.05;;;;;;;;;;4975823;28;20039;-59
2022/05/23 12:36:36;;;;;;;5.40;2.30;;;;;;;;;;4971712;28;20826;-59
2022/05/23 12:39:20;;;;;;;5.13;1.83;;;;;;;;;;4975887;28;20060;-59
2022/05/23 12:41:50;;;;;;;4.60;2.33;;;;;;;;;;4979224;28;20047;-63
2022/05/23 12:44:30;;;;;;;4.35;2.38;;;;;;;;;;4979822;28;20060;-58
2022/05/23 12:47:07;;;;;;;7.28;2.25;;;;;;;;;;4972467;28;20035;-59
2022/05/23 12:49:42;;;;;;;5.82;2.15;;;;;;;;;;4975826;28;20512;-59
2022/05/23 12:52:35;;;;;;;9.00;2.50;;;;;;;;;;4977014;28;20665;-59
2022/05/23 12:55:01;;;;;;;9.70;3.17;;;;;;;;;;4979837;28;20054;-59
2022/05/23 12:57:28;;;;;;;9.63;2.35;;;;;;;;;;4975432;28;20065;-59
2022/05/23 12:59:57;;;;;;;7.45;2.50;;;;;;;;;;4978752;28;20054;-59
2022/05/23 13:02:27;;;;;;;5.47;2.20;;;;;;;;;;4979662;28;20046;-59
2022/05/23 13:04:57;;;;;;;3.92;2.28;;;;;;;;;;4979062;28;20612;-59
2022/05/23 13:07:27;;;;;;;3.92;2.40;;;;;;;;;;4979606;28;20038;-59
2022/05/23 13:10:01;;;;;;;6.38;2.55;;;;;;;;;;4978979;28;20112;-59
2022/05/23 13:12:36;;;;;;;4.85;2.92;;;;;;;;;;4978216;28;20050;-59
2022/05/23 13:15:03;;;;;;;6.65;2.88;;;;;;;;;;4979882;28;20125;-59
2022/05/23 13:17:30;;;;;;;8.80;2.75;;;;;;;;;;4984045;28;20045;-56
2022/05/23 13:22:42;;;;;;;9.75;3.00;;;;;;;;;;4983588;28;20297;-57
2022/05/23 13:25:08;;;;;;;4.15;2.70;;;;;;;;;;4981155;28;20069;-56
2022/05/23 13:27:42;;;;;;;5.25;2.78;;;;;;;;;;4979678;28;20584;-56
2022/05/23 13:30:10;;;;;;;8.52;3.25;;;;;;;;;;4982700;28;20046;-56
2022/05/23 13:32:36;;;;;;;7.68;2.90;;;;;;;;;;4980951;28;20046;-57
2022/05/23 13:35:17;;;;;;;5.57;2.83;;;;;;;;;;4982758;28;20089;-58
2022/05/23 13:37:43;;;;;;;7.18;2.88;;;;;;;;;;4983045;28;20054;-59
2022/05/23 13:40:14;;;;;;;7.93;3.10;;;;;;;;;;4982597;28;20140;-58
2022/05/23 13:42:40;;;;;;;5.97;2.72;;;;;;;;;;4982826;28;20206;-58
2022/05/23 13:45:09;;;;;;;5.38;3.13;;;;;;;;;;4981655;28;20034;-58
2022/05/23 13:47:37;;;;;;;7.93;3.20;;;;;;;;;;4983317;28;20133;-59
2022/05/23 13:50:08;;;;;;;11.30;3.47;;;;;;;;;;4982341;28;20049;-58
2022/05/23 13:52:39;;;;;;;7.35;3.53;;;;;;;;;;4982239;28;20157;-58
2022/05/23 13:55:09;;;;;;;6.55;2.88;;;;;;;;;;4984028;28;20140;-60
2022/05/23 13:57:39;;;;;;;13.02;3.72;;;;;;;;;;4983063;28;20046;-60
2022/05/23 14:00:06;;;;;;;6.22;3.55;;;;;;;;;;4981885;28;20073;-60
2022/05/23 14:02:35;;;;;;;8.68;3.42;;;;;;;;;;4981553;28;20093;-58
2022/05/23 14:05:03;;;;;;;5.35;3.10;;;;;;;;;;4981733;28;20108;-59
2022/05/23 14:07:29;;;;;;;;;;;;;;;;;;4986766;28;20053;-59
2022/05/23 14:09:56;;;;;;;5.38;3.65;;;;;;;;;;4986029;28;19925;-59
2022/05/23 14:12:26;;;;;;;6.10;3.33;;;;;;;;;;4986631;28;20054;-58
2022/05/23 14:14:57;;;;;;;5.50;3.10;;;;;;;;;;4968971;28;20542;-58
2022/05/23 14:17:24;;;;;;;8.07;3.42;;;;;;;;;;4968680;28;20046;-58
2022/05/23 14:19:53;;;;;;;12.02;3.13;;;;;;;;;;4968615;28;20039;-58
2022/05/23 14:22:22;;;;;;;5.35;2.95;;;;;;;;;;4970938;28;20126;-58
2022/05/23 14:24:50;;;;;;;7.53;3.33;;;;;;;;;;4970076;28;20113;-59
2022/05/23 14:27:24;;;;;;;6.13;3.03;;;;;;;;;;4970730;28;20153;-58
2022/05/23 14:30:10;;;;;;;6.88;3.30;;;;;;;;;;4985937;28;20093;-59
2022/05/23 14:32:36;;;;;;;9.23;3.95;;;;;;;;;;4978663;28;20038;-58
2022/05/23 14:35:10;;;;;;;7.32;3.35;;;;;;;;;;4969273;28;20046;-58
2022/05/23 14:37:36;;;;;;;12.05;3.90;;;;;;;;;;4973422;28;20043;-58
2022/05/23 14:40:02;;;;;;;7.65;3.45;;;;;;;;;;4968868;28;20114;-58
2022/05/23 14:42:31;;;;;;;9.25;3.33;;;;;;;;;;4970906;28;20094;-58
2022/05/23 14:45:14;;;;;;;14.75;3.78;;;;;;;;;;4969076;28;20050;-58
2022/05/23 14:47:53;;;;;;;8.93;3.45;;;;;;;;;;4967774;28;20053;-58
2022/05/23 14:50:21;;;;;;;8.30;3.17;;;;;;;;;;4978575;28;20043;-58
2022/05/23 14:55:41;;;;;;;6.43;2.88;;;;;;;;;;4974817;28;20062;-58
2022/05/23 15:00:59;;;;;;;7.10;3.25;;;;;;;;;;4976917;28;20157;-58
2022/05/23 15:03:27;;;;;;;7.75;3.53;;;;;;;;;;4982986;28;20042;-57
2022/05/23 15:05:55;;;;;;;4.38;3.15;;;;;;;;;;4968030;28;20054;-57
2022/05/23 15:08:22;;;;;;;5.90;3.47;;;;;;;;;;4973695;28;20038;-57
2022/05/23 15:10:48;;;;;;;6.82;3.47;;;;;;;;;;4972746;28;20082;-59
2022/05/23 15:13:14;;;;;;;9.82;3.67;;;;;;;;;;4965868;28;20178;-58
2022/05/23 15:15:41;;;;;;;4.95;3.17;;;;;;;;;;4974629;28;20046;-58
2022/05/23 15:18:08;;;;;;;6.93;4.15;;;;;;;;;;4974340;28;20481;-58
2022/05/23 15:20:35;;;;;;;10.07;3.65;;;;;;;;;;4983005;28;20073;-57
2022/05/23 15:23:02;;;;;;;7.28;3.70;;;;;;;;;;4972388;28;20538;-58
2022/05/23 15:25:28;;;;;;;6.83;3.37;;;;;;;;;;4972019;28;20061;-58
2022/05/23 15:27:55;;;;;;;7.38;4.28;;;;;;;;;;4975358;28;20050;-58
2022/05/23 15:30:24;;;;;;;7.60;3.20;;;;;;;;;;4979231;28;20038;-58
2022/05/23 15:32:51;;;;;;;11.65;4.13;;;;;;;;;;4977976;28;20050;-58
2022/05/23 15:35:19;;;;;;;10.95;3.80;;;;;;;;;;4974520;28;20068;-58
2022/05/23 15:37:45;;;;;;;8.80;4.20;;;;;;;;;;4967039;28;20086;-57
2022/05/23 15:40:12;;;;;;;10.20;5.15;;;;;;;;;;4978301;28;20563;-57
2022/05/23 15:42:39;;;;;;;8.27;4.23;;;;;;;;;;4977087;28;20088;-57
2022/05/23 15:45:08;;;;;;;9.57;4.28;;;;;;;;;;4978903;28;20139;-57
2022/05/23 15:47:34;;;;;;;7.15;4.03;;;;;;;;;;4977433;28;20046;-57
2022/05/23 15:50:01;;;;;;;5.78;3.78;;;;;;;;;;4978234;28;20057;-57
2022/05/23 15:52:28;;;;;;;5.70;3.65;;;;;;;;;;4978065;28;20093;-57
2022/05/23 15:54:55;;;;;;;10.55;4.00;;;;;;;;;;4973517;28;20082;-57
2022/05/23 15:57:26;;;;;;;4.43;3.70;;;;;;;;;;4978449;28;20054;-57